Millenium Air

Millenium Air Since 1998



 METAR AND TAF INFORMATION
METAR FOR LIML
ADDS - METARS form results

(2045 UTC 22 October 2020)
Data provider http://aviationweather.gov/metar/data/
 
METAR text: LIML 222020Z VRB02KT 6000 -DZ FEW015 SCT030 14/13 Q1024 NOSIG
Conditions at: LIML (MILANO/LINATE , IT) observed 2020 UTC 22 October 2020
Temperature: 14.0°C (57°F)
Dewpoint: 13.0°C (55°F) [RH = 94%]
Pressure (altimeter): 30.24 inches Hg (1024.0 mb)
Winds: variable direction winds at 2 MPH (2 knots; 1.0 m/s)
Visibility: 4 miles ( 6 km)
Ceiling: at least 12,000 feet AGL
Clouds: few clouds at 1500 feet AGL
scattered clouds at 3000 feet AGL
Weather: -DZ  (light drizzle)

METAR text: LIML 221950Z 29003KT 260V320 6000 -DZ FEW015 BKN030 14/13 Q1024 NOSIG
Conditions at: LIML (MILANO/LINATE , IT) observed 1950 UTC 22 October 2020
Temperature: 14.0°C (57°F)
Dewpoint: 13.0°C (55°F) [RH = 94%]
Pressure (altimeter): 30.24 inches Hg (1024.0 mb)
Winds: from the WNW (290 degrees) at 3 MPH (3 knots; 1.5 m/s)
Visibility: 4 miles ( 6 km)
Ceiling: 3000 feet AGL
Clouds: few clouds at 1500 feet AGL
broken clouds at 3000 feet AGL
Weather: -DZ  (light drizzle)

Forecast for: LIML (MILANO/LINATE , IT)
Text: TAF LIML 221700Z 2218/2318 VRB05KT 5000 BR BKN050
Forecast period: 1800 UTC 22 October 2020 to 1800 UTC 23 October 2020
Forecast type: FROM: standard forecast or significant change
Winds: variable direction winds at 6 MPH (5 knots; 2.6 m/s)
Visibility: 3 miles (5 km)
Ceiling: 5000 feet AGL
Clouds: broken clouds at 5000 feet AGL
Weather: BR  (mist)
Text: TEMPO 2302/2307 2000
Forecast period: 0200 to 0700 UTC 23 October 2020
Forecast type: TEMPORARY: The following changes expected for less than half the time period
Visibility: 1.24 miles (2.00 km)
Ceiling: unknown
Clouds: missing
Weather: no significant weather forecast for this period
Text: TEMPO 2307/2312 RA
Forecast period: 0700 to 1200 UTC 23 October 2020
Forecast type: TEMPORARY: The following changes expected for less than half the time period
Visibility: missing
Ceiling: unknown
Clouds: missing
Weather: RA  (moderate rain)

 AIRPORT MAP

 RUNWAY INFORMATION
Runway 18L Runway length 8005 ft Runway width 197 ft
Runway elevation 353 ft Runway displaced threshold 0 ft Runway heading 176
Runway 36R Runway length 8005 ft Runway width 197 ft
Runway elevation 337 ft Runway displaced threshold 0 ft Runway heading 356
Runway 18R Runway length 1972 ft Runway width 72 ft
Runway elevation 353 ft Runway displaced threshold 0 ft Runway heading 176
Runway 36L Runway length 1972 ft Runway width 72 ft
Runway elevation 349 ft Runway displaced threshold 0 ft Runway heading 356

 AIRPORT FREQUENCIES
Type APP Name MILANO APP Frequency 132.7 MHZ
Type ATIS Name ATIS Frequency 135.55 MHZ
Type DEP Name MILANO DEP Frequency 126.75 MHZ
Type GND Name GND Frequency 121.8 MHZ
Type TWR Name TWR Frequency 118.1 MHZ

 AIRPORT NEAR NAVIGATION AIDS
Type VOR-DME Name Linate Frequency 112250 KHZ
Type NDB Name Linate Frequency 386 KHZ